DRK541 VEGT-VQPR
Flight info
| Callsign | DRK541 |
|---|---|
| Flight time | N/A |
| Altitude | 24000 |
| Route | GGT W137 DUKUM DCT BOGOP DCT TAKTI DCT PRO DCT PR |
| Aircraft | A319/M-SDE3FGHIRWY/LB1 |
Departure
| Time | N/A |
|---|---|
| Airport | Lokpriya Gopinath Bordoloi International Airport (VEGT) |
Arrival
| Time | 2026-04-28 07:12 |
|---|---|
| Airport | Paro International Airport (VQPR) |
| Time | Latitude | Longitude | Altitude | Speed | Heading |
|---|---|---|---|---|---|
| 2026-04-28 07:07 | 27.37801 | 89.43642 | 11304 ft | 166 kts | 312° |
| 2026-04-28 07:08 | 27.38595 | 89.42691 | 11183 ft | 167 kts | 311° |
| 2026-04-28 07:08 | 27.39400 | 89.41732 | 11102 ft | 170 kts | 311° |
| 2026-04-28 07:08 | 27.40219 | 89.40757 | 11016 ft | 172 kts | 312° |
| 2026-04-28 07:08 | 27.41020 | 89.39758 | 10854 ft | 172 kts | 308° |
| 2026-04-28 07:09 | 27.41735 | 89.38675 | 10529 ft | 172 kts | 299° |
| 2026-04-28 07:09 | 27.42307 | 89.37512 | 10246 ft | 169 kts | 294° |
| 2026-04-28 07:09 | 27.42857 | 89.36365 | 10013 ft | 166 kts | 297° |
| 2026-04-28 07:09 | 27.43740 | 89.35552 | 9569 ft | 169 kts | 344° |
| 2026-04-28 07:10 | 27.44859 | 89.35761 | 9066 ft | 168 kts | 37° |
| 2026-04-28 07:10 | 27.45407 | 89.36841 | 8631 ft | 161 kts | 90° |
| 2026-04-28 07:10 | 27.45120 | 89.38004 | 8421 ft | 154 kts | 120° |
| 2026-04-28 07:10 | 27.44606 | 89.39042 | 8247 ft | 152 kts | 120° |
| 2026-04-28 07:11 | 27.44139 | 89.40103 | 8097 ft | 150 kts | 117° |
| 2026-04-28 07:11 | 27.43584 | 89.41042 | 7969 ft | 143 kts | 143° |
| 2026-04-28 07:11 | 27.42679 | 89.41460 | 7691 ft | 140 kts | 163° |
| 2026-04-28 07:11 | 27.41746 | 89.41652 | 7535 ft | 137 kts | 165° |
| 2026-04-28 07:12 | 27.40893 | 89.42114 | 7379 ft | 131 kts | 149° |
| 2026-04-28 07:12 | 27.40226 | 89.42535 | 7339 ft | 85 kts | 150° |
| 2026-04-28 07:12 | 27.39861 | 89.42765 | 7329 ft | 34 kts | 150° |
| 2026-04-28 07:12 | 27.39663 | 89.42892 | 7323 ft | 30 kts | 150° |
| 2026-04-28 07:13 | 27.39486 | 89.43005 | 7316 ft | 28 kts | 150° |
| 2026-04-28 07:13 | 27.39445 | 89.43014 | 7314 ft | 1 kts | 197° |
| 2026-04-28 07:13 | 27.39446 | 89.43023 | 7314 ft | 1 kts | 70° |
| 2026-04-28 07:13 | 27.39453 | 89.43022 | 7314 ft | 1 kts | 358° |
| 2026-04-28 07:14 | 27.39482 | 89.43007 | 7315 ft | 6 kts | 331° |
| 2026-04-28 07:14 | 27.39515 | 89.42987 | 7317 ft | 5 kts | 331° |
| 2026-04-28 07:14 | 27.39563 | 89.42957 | 7319 ft | 10 kts | 331° |
| 2026-04-28 07:14 | 27.39642 | 89.42908 | 7322 ft | 16 kts | 330° |
| 2026-04-28 07:15 | 27.39755 | 89.42835 | 7325 ft | 22 kts | 330° |
| 2026-04-28 07:15 | 27.39887 | 89.42751 | 7330 ft | 21 kts | 330° |
| 2026-04-28 07:15 | 27.40015 | 89.42669 | 7332 ft | 21 kts | 330° |
| 2026-04-28 07:15 | 27.40140 | 89.42589 | 7336 ft | 20 kts | 330° |
| 2026-04-28 07:16 | 27.40257 | 89.42515 | 7340 ft | 19 kts | 330° |
| 2026-04-28 07:16 | 27.40369 | 89.42444 | 7344 ft | 18 kts | 330° |
| 2026-04-28 07:16 | 27.40471 | 89.42379 | 7349 ft | 17 kts | 331° |
| 2026-04-28 07:16 | 27.40572 | 89.42316 | 7352 ft | 14 kts | 327° |
| 2026-04-28 07:17 | 27.40584 | 89.42230 | 7355 ft | 8 kts | 235° |
| 2026-04-28 07:17 | 27.40561 | 89.42207 | 7353 ft | 6 kts | 224° |
| 2026-04-28 07:17 | 27.40543 | 89.42177 | 7354 ft | 3 kts | 238° |
| 2026-04-28 07:17 | 27.40535 | 89.42163 | 7354 ft | 1 kts | 240° |
| 2026-04-28 07:18 | 27.40535 | 89.42162 | 7354 ft | 0 kts | 240° |